Time;durP1;ratioP1;P1;durP2;ratioP2;P2;SDS_P1;SDS_P2;PMS_P1;PMS_P2;Temp;Humidity;BMP_temperature;BMP_pressure;BME280_temperature;BME280_humidity;BME280_pressure;Samples;Min_cycle;Max_cycle;Signal;HPM_P1;HPM_P2
2024/01/05 00:01:09;;;;;;;17.98;11.95;;;6.60;83.60;;;;;;4993502;28;20034;-77
2024/01/05 00:03:35;;;;;;;13.80;10.90;;;6.70;80.70;;;;;;4994271;28;20101;-77
2024/01/05 00:06:00;;;;;;;14.15;12.07;;;6.70;79.60;;;;;;4994636;28;20026;-77
2024/01/05 00:08:26;;;;;;;15.82;11.70;;;6.60;83.20;;;;;;4993051;28;20031;-77
2024/01/05 00:10:52;;;;;;;14.98;11.35;;;6.60;85.90;;;;;;4993942;28;20572;-77
2024/01/05 00:13:17;;;;;;;14.52;12.13;;;6.50;89.70;;;;;;4994214;28;20031;-77
2024/01/05 00:15:43;;;;;;;16.20;12.07;;;6.50;90.20;;;;;;4994552;28;20409;-77
2024/01/05 00:18:09;;;;;;;15.25;12.02;;;6.60;90.40;;;;;;4993962;28;20023;-77
2024/01/05 00:20:35;;;;;;;15.25;13.25;;;6.60;90.30;;;;;;4994363;28;20428;-77
2024/01/05 00:23:01;;;;;;;16.55;12.40;;;6.50;91.20;;;;;;4993912;28;20092;-77
2024/01/05 00:25:27;;;;;;;18.10;13.02;;;6.50;92.30;;;;;;4993011;28;20038;-77
2024/01/05 00:27:53;;;;;;;17.75;13.65;;;6.50;92.60;;;;;;4993801;28;20274;-77
2024/01/05 00:30:19;;;;;;;14.93;13.05;;;6.60;92.70;;;;;;4994224;28;20026;-77
2024/01/05 00:32:45;;;;;;;19.08;12.95;;;6.60;91.80;;;;;;4993717;28;20603;-77
2024/01/05 00:35:10;;;;;;;18.08;13.73;;;6.60;91.50;;;;;;4994068;28;20105;-77
2024/01/05 00:37:36;;;;;;;16.33;13.80;;;6.70;89.30;;;;;;4993468;28;20061;-77
2024/01/05 00:40:06;;;;;;;18.38;13.88;;;6.70;86.50;;;;;;4992875;28;20493;-77
2024/01/05 00:42:31;;;;;;;18.60;14.00;;;6.70;87.50;;;;;;4989905;28;20045;-77
2024/01/05 00:44:57;;;;;;;19.85;13.40;;;6.70;85.10;;;;;;4994202;28;20026;-77
2024/01/05 00:47:23;;;;;;;16.55;13.18;;;6.80;81.20;;;;;;4993490;28;20030;-77
2024/01/05 00:49:48;;;;;;;14.32;12.63;;;6.80;81.80;;;;;;4991274;28;20034;-77
2024/01/05 00:52:14;;;;;;;14.90;13.02;;;6.90;79.50;;;;;;4992446;28;20121;-77
2024/01/05 00:54:40;;;;;;;16.02;12.18;;;6.90;73.50;;;;;;4996050;28;20026;-77
2024/01/05 00:57:06;;;;;;;15.38;13.27;;;6.90;70.30;;;;;;4993269;28;20381;-77
2024/01/05 00:59:32;;;;;;;18.23;14.07;;;6.90;72.20;;;;;;4993503;28;20037;-77
2024/01/05 01:01:57;;;;;;;18.50;12.50;;;6.90;74.20;;;;;;4990910;28;20390;-77
2024/01/05 01:04:23;;;;;;;19.17;14.27;;;6.90;69.20;;;;;;4993652;28;20527;-77
2024/01/05 01:06:49;;;;;;;16.42;13.25;;;6.80;66.10;;;;;;4992861;28;20054;-77
2024/01/05 01:09:15;;;;;;;16.77;13.32;;;6.90;68.10;;;;;;4993506;28;20053;-77
2024/01/05 01:11:41;;;;;;;21.63;14.13;;;6.90;61.60;;;;;;4991655;28;20026;-77
2024/01/05 01:14:07;;;;;;;21.63;14.00;;;6.90;61.00;;;;;;4992253;28;20061;-77
2024/01/05 01:16:32;;;;;;;19.80;14.02;;;6.80;66.00;;;;;;4992892;28;20030;-77
2024/01/05 01:18:59;;;;;;;16.73;13.52;;;6.70;68.90;;;;;;4993312;28;20030;-77
2024/01/05 01:21:25;;;;;;;13.50;11.88;;;6.70;77.20;;;;;;4992756;28;20030;-77
2024/01/05 01:23:51;;;;;;;15.18;12.27;;;6.60;77.60;;;;;;4993043;28;20026;-77
2024/01/05 01:26:17;;;;;;;15.75;12.60;;;6.60;80.70;;;;;;4991840;28;20461;-76
2024/01/05 01:28:43;;;;;;;17.17;11.55;;;6.60;79.10;;;;;;4991254;28;20168;-77
2024/01/05 01:31:09;;;;;;;16.15;11.55;;;6.60;79.20;;;;;;4993290;28;20034;-77
2024/01/05 01:33:34;;;;;;;12.07;10.38;;;6.60;79.80;;;;;;4992496;28;20416;-77
2024/01/05 01:36:00;;;;;;;15.20;11.00;;;6.60;75.00;;;;;;4992874;28;20037;-77
2024/01/05 01:38:26;;;;;;;12.40;10.52;;;6.60;76.40;;;;;;4992547;28;20034;-77
2024/01/05 01:41:10;;;;;;;14.57;10.38;;;6.60;76.10;;;;;;4990732;28;20041;-77
2024/01/05 01:43:35;;;;;;;14.23;10.93;;;6.60;73.50;;;;;;4991294;28;20054;-77
2024/01/05 01:46:01;;;;;;;11.25;9.98;;;6.60;73.20;;;;;;4992344;28;20121;-77
2024/01/05 01:48:29;;;;;;;11.43;10.02;;;6.60;64.70;;;;;;4989463;28;20037;-77
2024/01/05 01:50:56;;;;;;;11.13;9.35;;;6.70;65.80;;;;;;4991215;28;20026;-77
2024/01/05 01:53:24;;;;;;;13.48;10.02;;;6.70;67.60;;;;;;4990914;28;20475;-77
2024/01/05 01:55:51;;;;;;;13.27;9.73;;;6.70;64.80;;;;;;4991160;28;20068;-77
2024/01/05 01:58:18;;;;;;;9.95;8.90;;;6.60;66.60;;;;;;4992107;28;20113;-77
2024/01/05 02:00:45;;;;;;;12.43;9.65;;;6.60;69.10;;;;;;4992475;28;20034;-77
2024/01/05 02:03:11;;;;;;;13.35;9.90;;;6.60;72.20;;;;;;4992122;28;20484;-77
2024/01/05 02:05:37;;;;;;;9.40;8.50;;;6.60;72.40;;;;;;4992141;28;20040;-77
2024/01/05 02:08:03;;;;;;;12.68;9.20;;;6.60;67.10;;;;;;4991995;28;20120;-77
2024/01/05 02:10:29;;;;;;;10.95;8.60;;;6.60;66.40;;;;;;4992327;28;20018;-77
2024/01/05 02:12:58;;;;;;;9.68;8.65;;;6.60;69.60;;;;;;4991954;28;20500;-77
2024/01/05 02:15:24;;;;;;;12.35;9.68;;;6.60;65.70;;;;;;4989084;28;20022;-77
2024/01/05 02:17:49;;;;;;;11.13;9.38;;;6.60;69.40;;;;;;4991016;28;20092;-77
2024/01/05 02:20:15;;;;;;;10.02;8.73;;;6.60;69.60;;;;;;4991828;28;20054;-76
2024/01/05 02:22:47;;;;;;;10.25;8.45;;;6.60;70.20;;;;;;4991817;28;20080;-77
2024/01/05 02:25:12;;;;;;;10.85;8.38;;;6.60;66.70;;;;;;4992223;28;20030;-77
2024/01/05 02:27:39;;;;;;;9.10;8.15;;;6.60;63.30;;;;;;4990309;28;20100;-77
2024/01/05 02:30:05;;;;;;;22.13;18.05;;;6.60;63.00;;;;;;4990946;28;20076;-77
2024/01/05 02:32:31;;;;;;;28.25;22.70;;;6.50;96.40;;;;;;4991762;28;20178;-77
2024/01/05 02:34:57;;;;;;;32.65;22.70;;;6.30;99.90;;;;;;4991711;28;20086;-77
2024/01/05 02:37:22;;;;;;;29.98;23.25;;;6.20;99.90;;;;;;4991578;28;20034;-77
2024/01/05 02:39:48;;;;;;;28.75;22.63;;;6.20;99.90;;;;;;4989119;28;20054;-77
2024/01/05 02:42:14;;;;;;;33.50;23.58;;;6.20;99.90;;;;;;4991510;28;20389;-77
2024/01/05 02:44:39;;;;;;;32.50;23.55;;;6.20;99.90;;;;;;4996008;28;20022;-77
2024/01/05 02:47:06;;;;;;;27.00;23.38;;;6.30;99.90;;;;;;4991483;28;20105;-77
2024/01/05 02:49:31;;;;;;;28.40;22.60;;;6.20;99.90;;;;;;4991814;28;20023;-77
2024/01/05 02:51:57;;;;;;;31.20;23.00;;;6.20;99.90;;;;;;4991197;28;20033;-77
2024/01/05 02:54:22;;;;;;;28.83;23.17;;;6.20;99.90;;;;;;4986826;28;20033;-77
2024/01/05 02:56:50;;;;;;;29.33;23.00;;;6.30;99.90;;;;;;4990903;28;20100;-77
2024/01/05 02:59:16;;;;;;;30.95;23.60;;;6.20;99.90;;;;;;4992204;28;20042;-77
2024/01/05 03:01:41;;;;;;;30.20;23.90;;;6.20;99.90;;;;;;4995262;28;20041;-77
2024/01/05 03:04:07;;;;;;;29.42;23.02;;;6.20;99.90;;;;;;4995812;28;20031;-77
2024/01/05 03:06:33;;;;;;;31.13;23.42;;;6.20;99.90;;;;;;4995227;28;20057;-77
2024/01/05 03:08:59;;;;;;;31.30;23.80;;;6.20;99.90;;;;;;4995474;28;20387;-77
2024/01/05 03:11:25;;;;;;;26.52;23.15;;;6.20;99.90;;;;;;4994224;28;20030;-76
2024/01/05 03:13:51;;;;;;;27.90;23.70;;;6.10;99.90;;;;;;4995403;28;20093;-77
2024/01/05 03:16:16;;;;;;;28.52;22.35;;;6.20;99.90;;;;;;4995661;28;20472;-77
2024/01/05 03:18:42;;;;;;;24.98;20.60;;;6.10;99.90;;;;;;4994946;28;20377;-77
2024/01/05 03:21:09;;;;;;;28.27;22.45;;;6.10;99.90;;;;;;4995477;28;20030;-76
2024/01/05 03:23:34;;;;;;;26.08;20.63;;;6.00;99.90;;;;;;4994995;28;20022;-76
2024/01/05 03:26:00;;;;;;;25.65;19.75;;;6.00;99.90;;;;;;4995328;28;20089;-76
2024/01/05 03:28:26;;;;;;;25.33;18.92;;;6.00;99.90;;;;;;4995082;28;20030;-76
2024/01/05 03:30:52;;;;;;;20.35;17.25;;;6.10;99.90;;;;;;4993557;28;20076;-76
2024/01/05 03:33:20;;;;;;;17.67;15.80;;;6.10;99.90;;;;;;4994929;28;20030;-77
2024/01/05 03:35:46;;;;;;;16.13;14.43;;;6.20;99.90;;;;;;4993904;28;20120;-77
2024/01/05 03:38:11;;;;;;;16.35;13.10;;;6.10;99.90;;;;;;4994830;28;20518;-77
2024/01/05 03:40:37;;;;;;;13.82;12.40;;;6.10;99.90;;;;;;4994989;28;20034;-77
2024/01/05 03:43:03;;;;;;;13.65;12.25;;;6.00;99.90;;;;;;4994732;28;20077;-76
2024/01/05 03:45:29;;;;;;;13.15;10.80;;;6.00;99.90;;;;;;4994839;28;20057;-77
2024/01/05 03:47:55;;;;;;;14.32;12.80;;;6.10;99.90;;;;;;4994516;28;20082;-77
2024/01/05 03:50:20;;;;;;;16.30;12.43;;;6.10;99.90;;;;;;4994777;28;20437;-76
2024/01/05 03:52:46;;;;;;;13.63;12.15;;;6.10;99.90;;;;;;4994602;28;20026;-75
2024/01/05 03:55:12;;;;;;;17.10;13.20;;;6.10;99.90;;;;;;4993592;28;20173;-77
2024/01/05 03:57:37;;;;;;;16.50;14.27;;;6.20;99.90;;;;;;4994258;28;20531;-77
2024/01/05 04:00:03;;;;;;;18.63;14.60;;;6.20;99.90;;;;;;4994891;28;20396;-77
2024/01/05 04:02:29;;;;;;;17.75;15.73;;;6.30;99.90;;;;;;4994272;28;20038;-77
2024/01/05 04:04:54;;;;;;;21.33;17.70;;;6.30;99.90;;;;;;4994721;28;20045;-77
2024/01/05 04:07:20;;;;;;;18.67;16.58;;;6.40;99.90;;;;;;4994193;28;20027;-77
2024/01/05 04:09:46;;;;;;;17.25;15.45;;;6.50;99.90;;;;;;4994551;28;20109;-77
2024/01/05 04:12:11;;;;;;;20.60;18.48;;;6.50;99.90;;;;;;4993710;28;20034;-77
2024/01/05 04:14:37;;;;;;;21.27;18.98;;;6.60;99.90;;;;;;4993195;28;20085;-77
2024/01/05 04:17:03;;;;;;;20.33;17.50;;;6.60;99.90;;;;;;4993788;28;20022;-77
2024/01/05 04:19:29;;;;;;;21.63;18.38;;;6.60;99.90;;;;;;4994452;28;20045;-77
2024/01/05 04:21:55;;;;;;;22.15;18.85;;;6.50;99.90;;;;;;4992568;28;20269;-77
2024/01/05 04:24:21;;;;;;;23.42;20.23;;;6.50;99.90;;;;;;4994332;28;20108;-77
2024/01/05 04:26:48;;;;;;;27.23;22.33;;;6.50;99.90;;;;;;4993950;28;20216;-77
2024/01/05 04:29:13;;;;;;;27.67;23.92;;;6.50;99.90;;;;;;4992948;28;20026;-77
2024/01/05 04:31:39;;;;;;;25.02;22.25;;;6.60;99.90;;;;;;4993766;28;20348;-77
2024/01/05 04:34:05;;;;;;;24.77;22.00;;;6.60;99.90;;;;;;4996461;28;20022;-77
2024/01/05 04:36:31;;;;;;;26.17;22.17;;;6.70;99.90;;;;;;4993471;28;20029;-77
2024/01/05 04:38:56;;;;;;;24.15;21.08;;;6.60;99.90;;;;;;4992757;28;20033;-77
2024/01/05 04:41:22;;;;;;;23.30;20.08;;;6.70;99.90;;;;;;4993714;28;20122;-77
2024/01/05 04:43:50;;;;;;;25.25;20.33;;;6.60;99.90;;;;;;4991285;28;20432;-77
2024/01/05 04:46:16;;;;;;;26.33;20.50;;;6.60;99.90;;;;;;4993767;28;20018;-77
2024/01/05 04:48:42;;;;;;;28.63;20.83;;;6.50;99.90;;;;;;4990812;28;20104;-77
2024/01/05 04:51:08;;;;;;;24.83;21.88;;;6.50;99.90;;;;;;4993326;28;20535;-77
2024/01/05 04:53:33;;;;;;;26.33;22.30;;;6.40;99.90;;;;;;4993253;28;20511;-77
2024/01/05 04:55:59;;;;;;;28.17;22.40;;;6.40;99.90;;;;;;4993761;28;20050;-77
2024/01/05 04:58:25;;;;;;;26.63;22.50;;;6.40;99.90;;;;;;4991962;28;20050;-77
2024/01/05 05:00:51;;;;;;;25.17;22.45;;;6.40;99.90;;;;;;4995155;28;20088;-77
2024/01/05 05:03:16;;;;;;;27.17;22.02;;;6.40;99.90;;;;;;4993750;28;20448;-77
2024/01/05 05:05:42;;;;;;;26.80;23.27;;;6.40;99.90;;;;;;4991933;28;20026;-77
2024/01/05 05:08:13;;;;;;;27.48;23.30;;;6.40;99.90;;;;;;4991880;28;20034;-77
2024/01/05 05:10:39;;;;;;;27.30;24.38;;;6.40;99.90;;;;;;4993585;28;20495;-77
2024/01/05 05:13:05;;;;;;;30.02;24.85;;;6.40;99.90;;;;;;4992911;28;20532;-77
2024/01/05 05:15:30;;;;;;;29.25;24.50;;;6.50;99.90;;;;;;4993266;28;20102;-77
2024/01/05 05:17:56;;;;;;;28.02;24.98;;;6.50;99.90;;;;;;4992933;28;20027;-77
2024/01/05 05:20:22;;;;;;;32.28;26.60;;;6.50;99.90;;;;;;4992925;28;20027;-77
2024/01/05 05:22:48;;;;;;;33.95;27.80;;;6.50;99.90;;;;;;4992197;28;20033;-77
2024/01/05 05:25:14;;;;;;;33.30;28.27;;;6.60;99.90;;;;;;4992700;28;20022;-77
2024/01/05 05:27:39;;;;;;;34.13;28.75;;;6.60;99.90;;;;;;4992860;28;20085;-77
2024/01/05 05:30:06;;;;;;;35.67;29.65;;;6.70;99.90;;;;;;4992895;28;20109;-77
2024/01/05 05:32:32;;;;;;;36.30;28.52;;;6.70;99.90;;;;;;4992779;28;20460;-77
2024/01/05 05:34:58;;;;;;;36.58;28.90;;;6.80;99.90;;;;;;4992924;28;20061;-77
2024/01/05 05:37:24;;;;;;;31.15;27.15;;;6.90;99.90;;;;;;4992234;28;20105;-77
2024/01/05 05:39:49;;;;;;;34.85;28.95;;;6.90;99.90;;;;;;4993056;28;20061;-77
2024/01/05 05:42:15;;;;;;;33.47;27.38;;;6.90;99.90;;;;;;4992221;28;20053;-77
2024/01/05 05:44:41;;;;;;;35.30;25.35;;;6.90;99.90;;;;;;4992845;28;20436;-77
2024/01/05 05:47:06;;;;;;;27.08;23.10;;;6.90;99.90;;;;;;4990858;28;20026;-77
2024/01/05 05:49:32;;;;;;;31.17;23.27;;;6.80;99.90;;;;;;4992902;28;20023;-77
2024/01/05 05:51:58;;;;;;;26.20;22.08;;;6.70;99.90;;;;;;4992246;28;20053;-77
2024/01/05 05:54:23;;;;;;;29.95;23.10;;;6.70;99.90;;;;;;4992431;28;20023;-77
2024/01/05 05:56:49;;;;;;;28.17;23.92;;;6.60;99.90;;;;;;4992086;28;20049;-77
2024/01/05 05:59:15;;;;;;;27.73;23.52;;;6.60;99.90;;;;;;4992561;28;20038;-77
2024/01/05 06:01:40;;;;;;;30.02;21.92;;;6.60;99.90;;;;;;4992171;28;20393;-77
2024/01/05 06:04:07;;;;;;;30.20;23.83;;;6.60;99.90;;;;;;4992495;28;20024;-77
2024/01/05 06:06:33;;;;;;;27.65;24.08;;;6.60;99.90;;;;;;4992037;28;20446;-77
2024/01/05 06:08:59;;;;;;;28.70;25.05;;;6.60;99.90;;;;;;4992416;28;20023;-77
2024/01/05 06:11:28;;;;;;;28.77;24.95;;;6.60;99.90;;;;;;4991889;28;20032;-77
2024/01/05 06:13:57;;;;;;;31.48;24.52;;;6.60;99.90;;;;;;4991097;28;20026;-77
2024/01/05 06:16:23;;;;;;;32.17;25.10;;;6.60;99.90;;;;;;4989165;28;20046;-77
2024/01/05 06:18:49;;;;;;;37.22;28.98;;;6.60;99.90;;;;;;4990427;28;20073;-77
2024/01/05 06:21:14;;;;;;;32.75;27.77;;;6.60;99.90;;;;;;4992168;28;20022;-77
2024/01/05 06:23:40;;;;;;;37.33;28.95;;;6.60;99.90;;;;;;4991815;28;20480;-77
2024/01/05 06:26:06;;;;;;;35.30;28.67;;;6.60;99.90;;;;;;4990653;28;20035;-77
2024/01/05 06:28:31;;;;;;;31.05;26.60;;;6.60;99.90;;;;;;4991723;28;20440;-77
2024/01/05 06:30:57;;;;;;;33.58;27.95;;;6.60;99.90;;;;;;4990741;28;20038;-77
2024/01/05 06:33:23;;;;;;;33.60;26.67;;;6.70;99.90;;;;;;4991833;28;20114;-77
2024/01/05 06:35:48;;;;;;;34.45;27.75;;;6.70;99.90;;;;;;4990225;28;20038;-77
2024/01/05 06:38:14;;;;;;;38.53;30.13;;;6.70;99.90;;;;;;4991721;28;20050;-77
2024/01/05 06:40:40;;;;;;;36.60;29.30;;;6.80;99.90;;;;;;4991908;28;20121;-77
2024/01/05 06:43:05;;;;;;;37.03;29.70;;;6.80;99.90;;;;;;4992292;28;20029;-77
2024/01/05 06:45:31;;;;;;;37.60;30.83;;;6.90;99.90;;;;;;4994071;28;20045;-77
2024/01/05 06:47:57;;;;;;;36.67;28.70;;;6.90;99.90;;;;;;4991321;28;20023;-77
2024/01/05 06:50:24;;;;;;;34.30;29.13;;;6.90;99.90;;;;;;4990202;28;20032;-77
2024/01/05 06:52:50;;;;;;;45.28;31.75;;;7.00;99.90;;;;;;4991257;28;20026;-77
2024/01/05 06:55:15;;;;;;;43.63;31.92;;;7.00;99.90;;;;;;4991748;28;20538;-77
2024/01/05 06:57:41;;;;;;;43.70;31.80;;;7.00;99.90;;;;;;4991558;28;20444;-77
2024/01/05 07:00:11;;;;;;;36.13;29.45;;;7.10;99.90;;;;;;4991671;28;20045;-77
2024/01/05 07:02:42;;;;;;;35.78;28.95;;;7.10;99.90;;;;;;4991409;28;20146;-77
2024/01/05 07:05:08;;;;;;;37.23;29.30;;;7.20;99.90;;;;;;4996591;28;20026;-77
2024/01/05 07:07:34;;;;;;;34.95;28.10;;;7.30;99.90;;;;;;4991118;28;20090;-77
2024/01/05 07:09:59;;;;;;;39.15;28.25;;;7.30;99.90;;;;;;4991822;28;20480;-77
2024/01/05 07:12:27;;;;;;;47.50;33.55;;;7.40;99.90;;;;;;4987802;28;20088;-77
2024/01/05 07:14:53;;;;;;;40.03;33.10;;;7.40;99.90;;;;;;4991640;28;20023;-77
2024/01/05 07:17:19;;;;;;;42.03;33.97;;;7.40;99.90;;;;;;4989978;28;20037;-77
2024/01/05 07:19:45;;;;;;;46.83;35.55;;;7.40;99.90;;;;;;4991707;28;20333;-77
2024/01/05 07:22:10;;;;;;;44.08;33.90;;;7.30;99.90;;;;;;4989780;28;20026;-77
2024/01/05 07:24:37;;;;;;;47.60;35.35;;;7.30;99.90;;;;;;4991431;28;20350;-77
2024/01/05 07:27:06;;;;;;;40.60;33.50;;;7.30;99.90;;;;;;4989930;28;20028;-77
2024/01/05 07:29:32;;;;;;;46.05;34.70;;;7.20;99.90;;;;;;4991393;28;20023;-77
2024/01/05 07:31:58;;;;;;;42.72;34.08;;;7.10;99.90;;;;;;4991256;28;20037;-77
2024/01/05 07:34:23;;;;;;;47.85;34.47;;;7.10;99.90;;;;;;4991509;28;20532;-77
2024/01/05 07:36:49;;;;;;;49.55;35.63;;;7.10;99.90;;;;;;4991089;28;20061;-77
2024/01/05 07:39:15;;;;;;;53.45;39.85;;;7.00;99.90;;;;;;4991266;28;20034;-77
2024/01/05 07:41:41;;;;;;;51.65;39.63;;;7.10;99.90;;;;;;4989957;28;20037;-77
2024/01/05 07:44:07;;;;;;;52.88;39.55;;;7.10;99.90;;;;;;4991394;28;20499;-77
2024/01/05 07:46:33;;;;;;;49.65;39.45;;;7.10;99.90;;;;;;4990901;28;20105;-77
2024/01/05 07:48:58;;;;;;;49.50;39.35;;;7.10;99.90;;;;;;4994963;28;20048;-77
2024/01/05 07:51:24;;;;;;;52.53;39.80;;;7.10;99.90;;;;;;4994503;28;20500;-77
2024/01/05 07:53:50;;;;;;;49.80;37.05;;;7.20;99.90;;;;;;4994799;28;20388;-77
2024/01/05 07:56:17;;;;;;;53.67;38.22;;;7.20;99.90;;;;;;4994579;28;20054;-77
2024/01/05 07:58:44;;;;;;;52.05;38.22;;;7.20;99.90;;;;;;4992910;28;20108;-77
2024/01/05 08:01:17;;;;;;;53.28;40.85;;;7.20;99.90;;;;;;4994696;28;20489;-77
2024/01/05 08:03:44;;;;;;;59.50;44.25;;;7.30;99.90;;;;;;4994261;28;20023;-77
2024/01/05 08:06:15;;;;;;;60.83;43.67;;;7.20;99.90;;;;;;4994591;28;20049;-77
2024/01/05 08:08:49;;;;;;;48.38;37.95;;;7.20;99.90;;;;;;4994286;28;20089;-77
2024/01/05 08:11:16;;;;;;;43.90;35.47;;;7.20;99.90;;;;;;4994539;28;20058;-77
2024/01/05 08:13:43;;;;;;;37.25;30.63;;;7.20;99.90;;;;;;4992769;28;20040;-77
2024/01/05 08:16:09;;;;;;;44.38;33.95;;;7.20;99.90;;;;;;4993087;28;20048;-77
2024/01/05 08:18:36;;;;;;;42.13;29.90;;;7.10;99.90;;;;;;4993957;28;20064;-77
2024/01/05 08:21:02;;;;;;;40.53;29.70;;;7.10;99.90;;;;;;4994281;28;20491;-78
2024/01/05 08:23:29;;;;;;;41.00;31.42;;;7.10;99.90;;;;;;4994068;28;20053;-78
2024/01/05 08:25:55;;;;;;;45.85;32.17;;;7.10;99.90;;;;;;4990814;28;20424;-78
2024/01/05 08:28:20;;;;;;;43.25;32.63;;;7.10;99.90;;;;;;4994011;28;20026;-78
2024/01/05 08:30:46;;;;;;;42.30;35.25;;;7.10;99.90;;;;;;4994113;28;20110;-77
2024/01/05 08:33:12;;;;;;;40.03;31.90;;;7.10;99.90;;;;;;4993827;28;20037;-77
2024/01/05 08:35:38;;;;;;;45.08;32.50;;;7.10;99.90;;;;;;4993982;28;20034;-78
2024/01/05 08:38:04;;;;;;;44.88;34.92;;;7.10;99.90;;;;;;4990182;28;20034;-78
2024/01/05 08:40:30;;;;;;;49.47;36.78;;;7.10;99.90;;;;;;4994133;28;20018;-78
2024/01/05 08:42:57;;;;;;;53.97;39.00;;;7.00;99.90;;;;;;4991231;28;20034;-78
2024/01/05 08:45:22;;;;;;;45.28;32.45;;;7.00;99.90;;;;;;4994046;28;20022;-78
2024/01/05 08:47:48;;;;;;;35.85;29.63;;;7.00;99.90;;;;;;4993191;28;20489;-78
2024/01/05 08:50:17;;;;;;;32.85;26.70;;;7.00;99.90;;;;;;4992770;28;20032;-78
2024/01/05 08:52:43;;;;;;;39.05;28.85;;;6.90;99.90;;;;;;4992044;28;20100;-78
2024/01/05 08:55:09;;;;;;;34.60;27.23;;;7.00;99.90;;;;;;4993691;28;20057;-78
2024/01/05 08:57:35;;;;;;;35.78;27.52;;;6.90;99.90;;;;;;4987273;28;20124;-78
2024/01/05 09:00:01;;;;;;;34.95;27.90;;;7.00;99.90;;;;;;4996503;28;20045;-78
2024/01/05 09:02:27;;;;;;;40.95;28.77;;;7.00;99.90;;;;;;4992918;28;20037;-78
2024/01/05 09:04:52;;;;;;;34.83;29.30;;;6.90;99.90;;;;;;4992419;28;20018;-78
2024/01/05 09:07:19;;;;;;;43.85;32.97;;;7.00;99.90;;;;;;4992866;28;20026;-78
2024/01/05 09:09:45;;;;;;;43.95;32.00;;;7.00;99.90;;;;;;4993417;28;20113;-78
2024/01/05 09:12:11;;;;;;;42.88;32.75;;;7.00;99.90;;;;;;4992690;28;20034;-78
2024/01/05 09:14:37;;;;;;;43.17;32.25;;;7.00;99.90;;;;;;4992097;28;20081;-78
2024/01/05 09:17:03;;;;;;;41.47;31.75;;;7.00;99.90;;;;;;4991154;28;20033;-78
2024/01/05 09:19:29;;;;;;;46.67;34.55;;;7.00;99.90;;;;;;4993078;28;20092;-78
2024/01/05 09:21:55;;;;;;;50.05;36.10;;;7.10;99.90;;;;;;4992865;28;20034;-78
2024/01/05 09:24:21;;;;;;;46.90;36.60;;;7.00;99.90;;;;;;4993176;28;20110;-78
2024/01/05 09:26:49;;;;;;;43.85;34.75;;;7.00;99.90;;;;;;4992786;28;20350;-78
2024/01/05 09:29:15;;;;;;;48.63;36.35;;;7.00;99.90;;;;;;4991226;28;20105;-78
2024/01/05 09:31:47;;;;;;;50.60;37.75;;;7.10;99.90;;;;;;4989545;28;20193;-78
2024/01/05 09:34:13;;;;;;;49.83;39.45;;;7.10;99.90;;;;;;4987881;28;20200;-77
2024/01/05 09:36:42;;;;;;;47.58;37.92;;;7.10;99.90;;;;;;4987695;28;20839;-78
2024/01/05 09:39:11;;;;;;;49.10;34.88;;;7.10;99.90;;;;;;4987456;28;20073;-78
2024/01/05 09:41:36;;;;;;;57.40;35.55;;;7.20;99.90;;;;;;4988646;28;20031;-78
2024/01/05 09:44:03;;;;;;;43.15;25.88;;;7.30;99.90;;;;;;4988095;28;20040;-78
2024/01/05 09:46:29;;;;;;;46.75;33.42;;;7.50;99.90;;;;;;4988369;28;20527;-78
2024/01/05 09:48:58;;;;;;;63.35;43.70;;;7.50;99.90;;;;;;4988738;28;20211;-77
2024/01/05 09:51:29;;;;;;;60.65;44.38;;;7.50;99.90;;;;;;4987162;28;20522;-77
2024/01/05 09:53:55;;;;;;;67.82;48.28;;;7.50;99.90;;;;;;4989883;28;20404;-78
2024/01/05 09:56:22;;;;;;;54.30;41.85;;;7.40;99.90;;;;;;4992247;28;20050;-78
2024/01/05 09:58:51;;;;;;;53.58;38.25;;;7.40;99.90;;;;;;4986760;28;20104;-77
2024/01/05 10:01:28;;;;;;;56.08;37.67;;;7.50;99.90;;;;;;4986726;28;20173;-77
2024/01/05 10:03:55;;;;;;;53.35;38.97;;;7.50;99.90;;;;;;4985851;28;20026;-77
2024/01/05 10:06:21;;;;;;;56.42;44.67;;;7.50;99.90;;;;;;4986880;28;20109;-78
2024/01/05 10:08:50;;;;;;;70.13;49.03;;;7.60;99.90;;;;;;4987309;28;20161;-78
2024/01/05 10:11:31;;;;;;;61.50;44.28;;;7.50;99.90;;;;;;4988016;28;20476;-77
2024/01/05 10:14:05;;;;;;;66.45;48.05;;;7.60;99.90;;;;;;4999143;28;20434;-77
2024/01/05 10:16:37;;;;;;;33.83;20.45;;;7.60;99.90;;;;;;4987812;28;20396;-77
2024/01/05 10:19:16;;;;;;;22.73;12.57;;;7.70;99.90;;;;;;4985464;28;20362;-78
2024/01/05 10:21:44;;;;;;;22.40;9.50;;;7.80;99.90;;;;;;4991359;28;20025;-78
2024/01/05 10:24:23;;;;;;;24.38;9.27;;;8.00;99.90;;;;;;4992212;28;20034;-78
2024/01/05 10:27:15;;;;;;;17.83;8.75;;;8.10;99.90;;;;;;4987821;28;20448;-78
2024/01/05 10:29:42;;;;;;;18.38;8.27;;;8.20;99.90;;;;;;4990745;28;20046;-78
2024/01/05 10:32:12;;;;;;;18.52;7.40;;;8.20;99.90;;;;;;4988474;28;20018;-78
2024/01/05 10:34:40;;;;;;;16.60;6.93;;;8.30;99.90;;;;;;4990545;28;20038;-78
2024/01/05 10:37:06;;;;;;;13.82;5.22;;;8.40;99.90;;;;;;4988380;28;20033;-78
2024/01/05 10:39:32;;;;;;;21.95;5.20;;;8.40;99.90;;;;;;4990862;28;20037;-78
2024/01/05 10:42:18;;;;;;;9.63;4.78;;;8.40;99.90;;;;;;4991625;28;20026;-78
2024/01/05 10:44:47;;;;;;;8.88;4.00;;;8.40;99.90;;;;;;4989995;28;20433;-79
2024/01/05 10:47:14;;;;;;;8.68;4.93;;;8.40;99.90;;;;;;4988293;28;20412;-79
2024/01/05 10:49:48;;;;;;;7.95;4.20;;;8.50;99.90;;;;;;4992117;28;20022;-79
2024/01/05 10:52:15;;;;;;;9.00;4.45;;;8.50;99.90;;;;;;4994547;28;20481;-79
2024/01/05 10:54:43;;;;;;;7.18;3.53;;;8.50;99.90;;;;;;4991467;28;20132;-78
2024/01/05 10:57:11;;;;;;;7.70;3.58;;;8.50;99.90;;;;;;4990250;28;20493;-79
2024/01/05 10:59:37;;;;;;;5.25;3.60;;;8.50;99.90;;;;;;4990304;28;20022;-79
2024/01/05 11:02:15;;;;;;;8.52;3.25;;;8.50;99.90;;;;;;4991649;28;20030;-79
2024/01/05 11:04:44;;;;;;;6.97;3.03;;;8.50;99.90;;;;;;4987834;28;20027;-79
2024/01/05 11:07:12;;;;;;;4.88;3.08;;;8.50;99.90;;;;;;4991382;28;20090;-79
2024/01/05 11:09:59;;;;;;;10.00;3.60;;;8.50;99.90;;;;;;4991543;28;20101;-79
2024/01/05 11:12:34;;;;;;;5.65;2.65;;;8.50;99.90;;;;;;4989415;28;20027;-79
2024/01/05 11:15:24;;;;;;;4.15;2.75;;;8.50;99.90;;;;;;4990407;28;20033;-79
2024/01/05 11:18:30;;;;;;;5.95;2.45;;;8.50;99.90;;;;;;4989168;28;20031;-79
2024/01/05 11:21:10;;;;;;;5.57;2.92;;;8.50;99.90;;;;;;4982847;28;20047;-79
2024/01/05 11:23:37;;;;;;;6.38;3.28;;;8.50;99.90;;;;;;4993916;28;20052;-79
2024/01/05 11:26:03;;;;;;;4.20;2.25;;;8.50;99.90;;;;;;4994280;28;20044;-79
2024/01/05 11:28:38;;;;;;;3.67;2.20;;;8.50;99.90;;;;;;4993692;28;20034;-79
2024/01/05 11:31:04;;;;;;;6.25;2.10;;;8.60;99.90;;;;;;4991387;28;20034;-78
2024/01/05 11:33:46;;;;;;;7.55;2.85;;;8.60;99.90;;;;;;4994956;28;20023;-79
2024/01/05 11:36:12;;;;;;;3.78;2.17;;;8.60;99.90;;;;;;4992349;28;20493;-79
2024/01/05 11:38:44;;;;;;;6.40;2.67;;;8.70;99.90;;;;;;4994850;28;20041;-79
2024/01/05 11:41:20;;;;;;;4.65;2.17;;;8.70;99.90;;;;;;4992419;28;20065;-79
2024/01/05 11:43:45;;;;;;;2.60;1.80;;;8.70;99.90;;;;;;4992897;28;20031;-79
2024/01/05 11:46:12;;;;;;;5.20;2.80;;;8.70;99.90;;;;;;4994980;28;20845;-79
2024/01/05 11:48:38;;;;;;;2.85;2.30;;;8.70;99.90;;;;;;4994603;28;20022;-79
2024/01/05 11:51:12;;;;;;;2.58;2.35;;;8.70;99.90;;;;;;4993717;28;20556;-79
2024/01/05 11:53:38;;;;;;;3.10;1.83;;;8.70;99.90;;;;;;4993264;28;20085;-79
2024/01/05 11:56:17;;;;;;;3.92;1.58;;;8.70;99.90;;;;;;4994764;28;20501;-80
2024/01/05 11:58:43;;;;;;;4.00;1.60;;;8.70;99.90;;;;;;4994462;28;20113;-80
2024/01/05 12:01:10;;;;;;;3.25;1.52;;;8.70;99.90;;;;;;4994755;28;20085;-80
2024/01/05 12:03:38;;;;;;;2.22;1.45;;;8.70;99.90;;;;;;4994353;28;20062;-79
2024/01/05 12:06:05;;;;;;;2.08;1.33;;;8.70;99.90;;;;;;4993234;28;21026;-80
2024/01/05 12:08:31;;;;;;;3.33;1.52;;;8.80;99.90;;;;;;4994425;28;20384;-80
2024/01/05 12:11:00;;;;;;;2.30;1.95;;;8.80;99.90;;;;;;4994597;28;20034;-80
2024/01/05 12:13:32;;;;;;;4.60;2.08;;;8.90;99.90;;;;;;4992965;28;20041;-80
2024/01/05 12:16:05;;;;;;;3.33;2.38;;;8.90;99.90;;;;;;4992700;28;20113;-80
2024/01/05 12:18:50;;;;;;;2.45;1.38;;;8.90;99.90;;;;;;4987460;28;20481;-80
2024/01/05 12:21:19;;;;;;;3.65;1.95;;;8.90;99.90;;;;;;4989898;28;20639;-81
2024/01/05 12:23:55;;;;;;;5.38;1.88;;;8.90;99.90;;;;;;4993020;28;20407;-81
2024/01/05 12:26:21;;;;;;;1.55;1.25;;;8.90;99.90;;;;;;4993991;28;20046;-81
2024/01/05 12:28:48;;;;;;;4.00;1.80;;;8.90;99.90;;;;;;4994201;28;20484;-81
2024/01/05 12:31:14;;;;;;;1.23;1.23;;;8.90;99.90;;;;;;4993189;28;20034;-81
2024/01/05 12:33:42;;;;;;;1.60;1.45;;;8.90;99.90;;;;;;4991960;28;20161;-81
2024/01/05 12:36:14;;;;;;;2.67;2.10;;;8.90;99.90;;;;;;4994087;28;20034;-81
2024/01/05 12:38:40;;;;;;;2.53;2.33;;;8.90;99.90;;;;;;4993831;28;20030;-81
2024/01/05 12:41:12;;;;;;;1.88;1.67;;;8.90;99.90;;;;;;4993865;28;20579;-80